Terminal Aerodrome Forecast
Issued by NWS Billings, MT

Home | Current Version | Previous Version | Text Only | Print | Product List | Glossary Off
Versions: 1 2 3 4 5 6 7 8 9 10 11 12 13

000
FTUS45 KBYZ 281725
TAFMLS
TAF
KMLS 281725Z 2818/2918 30010G14KT P6SM SCT120
     FM290300 01008KT P6SM SCT120 BKN150
     FM291500 10009KT P6SM FEW120=

USA.gov is the U.S. government's official web portal to all federal, state and local government web resources and services.